Time;durP1;ratioP1;P1;durP2;ratioP2;P2;SDS_P1;SDS_P2;PMS_P1;PMS_P2;Temp;Humidity;BMP_temperature;BMP_pressure;BME280_temperature;BME280_humidity;BME280_pressure;Samples;Min_cycle;Max_cycle;Signal;HPM_P1;HPM_P2
2022/07/20 00:01:26;;;;;;;8.20;6.25;;;;;;;28.15;41.01;101420.06;4721225;30;20444;-89
2022/07/20 00:03:52;;;;;;;8.95;6.22;;;;;;;28.16;41.19;101427.06;4722736;30;20080;-89
2022/07/20 00:06:17;;;;;;;7.40;5.63;;;;;;;28.14;41.34;101421.09;4719459;30;20065;-89
2022/07/20 00:11:27;;;;;;;6.88;6.18;;;;;;;28.14;41.06;101418.44;4720326;30;20057;-89
2022/07/20 00:13:56;;;;;;;10.07;6.18;;;;;;;28.02;41.08;101402.28;4716312;30;20036;-90
2022/07/20 00:16:24;;;;;;;7.07;5.65;;;;;;;28.15;41.09;101417.38;4703677;30;20088;-90
2022/07/20 00:18:50;;;;;;;7.05;5.50;;;;;;;28.14;41.12;101421.09;4721372;30;20063;-88
2022/07/20 00:21:16;;;;;;;8.85;6.18;;;;;;;28.13;41.16;101420.28;4721289;30;20049;-89
2022/07/20 00:23:42;;;;;;;7.93;5.93;;;;;;;28.13;41.28;101422.16;4723183;30;20041;-88
2022/07/20 00:26:08;;;;;;;8.40;5.78;;;;;;;28.13;41.17;101424.81;4714650;30;20072;-88
2022/07/20 00:28:34;;;;;;;9.25;6.07;;;;;;;28.09;41.34;101408.41;4720345;30;20050;-88
2022/07/20 00:31:00;;;;;;;7.25;5.38;;;;;;;28.12;41.10;101415.97;4723086;30;20052;-89
2022/07/20 00:33:25;;;;;;;7.88;5.10;;;;;;;28.13;41.21;101414.94;4719096;30;20040;-88
2022/07/20 00:35:51;;;;;;;7.63;5.88;;;;;;;28.11;41.50;101413.53;4720453;30;20049;-88
2022/07/20 00:38:16;;;;;;;6.72;5.40;;;;;;;28.11;41.33;101416.19;4722807;30;20091;-90
2022/07/20 00:40:42;;;;;;;8.57;5.43;;;;;;;28.10;41.25;101417.25;4722123;30;20072;-88
2022/07/20 00:43:08;;;;;;;8.05;6.03;;;;;;;28.01;41.22;101400.66;4721291;30;20160;-88
2022/07/20 00:45:33;;;;;;;8.23;5.80;;;;;;;28.00;41.36;101397.13;4719649;30;20119;-89
2022/07/20 00:47:59;;;;;;;6.97;5.53;;;;;;;28.00;41.38;101393.63;4689539;30;20700;-88
2022/07/20 00:50:25;;;;;;;7.18;5.80;;;;;;;28.10;41.23;101409.22;4723660;30;20075;-90
2022/07/20 00:52:51;;;;;;;6.13;5.32;;;;;;;28.08;41.23;101403.25;4733550;30;20037;-87
2022/07/20 00:55:17;;;;;;;7.93;6.30;;;;;;;28.11;41.35;101406.31;4720465;30;20069;-87
2022/07/20 00:57:42;;;;;;;7.43;5.95;;;;;;;28.07;41.16;101397.09;4716831;30;20139;-88
2022/07/20 01:00:09;;;;;;;6.15;5.50;;;;;;;28.10;41.26;101395.81;4719399;30;20045;-88
2022/07/20 01:02:35;;;;;;;6.00;4.90;;;;;;;28.00;41.31;101389.09;4700283;30;20150;-88
2022/07/20 01:05:01;;;;;;;8.13;5.63;;;;;;;27.98;41.30;101385.00;4713613;30;20056;-88
2022/07/20 01:07:26;;;;;;;8.50;5.28;;;;;;;27.99;41.33;101389.31;4719600;30;20485;-89
2022/07/20 01:09:53;;;;;;;7.38;5.57;;;;;;;28.06;41.06;101395.44;4719577;30;20802;-88
2022/07/20 01:12:18;;;;;;;6.72;5.20;;;;;;;28.03;41.35;101387.88;4716674;30;20042;-87
2022/07/20 01:14:44;;;;;;;6.70;5.32;;;;;;;28.05;41.29;101393.81;4723306;30;20048;-87
2022/07/20 01:17:10;;;;;;;5.93;5.20;;;;;;;28.01;41.44;101384.59;4720453;30;20122;-88
2022/07/20 01:19:36;;;;;;;7.95;5.82;;;;;;;27.93;41.61;101374.16;4719523;30;20060;-87
2022/07/20 01:22:03;;;;;;;8.55;5.55;;;;;;;28.03;41.33;101395.91;4715290;30;20045;-88
2022/07/20 01:24:29;;;;;;;6.68;5.53;;;;;;;28.04;41.61;101392.19;4718275;30;20052;-88
2022/07/20 01:26:55;;;;;;;7.38;5.20;;;;;;;28.01;41.42;101392.63;4720695;30;20069;-88
2022/07/20 01:29:21;;;;;;;6.80;5.57;;;;;;;28.03;41.42;101397.75;4705076;30;20045;-88
2022/07/20 01:31:46;;;;;;;6.88;5.22;;;;;;;28.02;41.34;101399.63;4722522;30;20110;-88
2022/07/20 01:34:12;;;;;;;5.97;5.07;;;;;;;27.93;41.34;101387.53;4721284;30;20041;-88
2022/07/20 01:36:37;;;;;;;6.78;5.30;;;;;;;27.93;41.55;101374.97;4717816;30;20052;-89
2022/07/20 01:39:03;;;;;;;6.68;5.43;;;;;;;28.01;41.51;101389.94;4720487;30;20056;-88
2022/07/20 01:41:28;;;;;;;7.85;5.90;;;;;;;27.94;41.04;101373.94;4706675;30;20550;-89
2022/07/20 01:43:54;;;;;;;7.90;5.47;;;;;;;28.01;41.35;101384.59;4701070;30;20056;-88
2022/07/20 01:46:19;;;;;;;6.40;4.88;;;;;;;28.00;41.02;101373.03;4721702;30;20040;-88
2022/07/20 01:48:45;;;;;;;6.43;5.47;;;;;;;27.99;41.18;101374.09;4723069;30;20056;-88
2022/07/20 01:51:10;;;;;;;9.30;5.60;;;;;;;27.99;41.29;101378.63;4722991;30;20040;-88
2022/07/20 01:53:36;;;;;;;8.05;5.38;;;;;;;27.93;41.32;101371.47;4726736;30;20493;-88
2022/07/20 01:56:02;;;;;;;6.75;5.15;;;;;;;27.95;41.16;101380.09;4722165;30;20801;-89
2022/07/20 01:58:27;;;;;;;7.15;5.55;;;;;;;27.95;41.26;101380.09;4717772;30;20480;-90
2022/07/20 02:00:53;;;;;;;6.57;5.35;;;;;;;27.97;41.24;101370.81;4720074;30;20049;-89
2022/07/20 02:03:19;;;;;;;6.95;5.28;;;;;;;27.89;41.55;101365.75;4705232;30;20032;-89
2022/07/20 02:05:45;;;;;;;8.05;5.50;;;;;;;27.93;41.37;101372.31;4720546;30;20052;-89
2022/07/20 02:08:10;;;;;;;7.43;5.38;;;;;;;27.97;41.31;101384.19;4721800;30;20546;-86
2022/07/20 02:10:36;;;;;;;6.80;5.18;;;;;;;27.95;41.49;101375.56;4717550;30;20090;-89
2022/07/20 02:13:02;;;;;;;6.18;5.10;;;;;;;27.97;41.23;101381.53;4725568;30;20041;-89
2022/07/20 02:18:12;;;;;;;6.88;5.05;;;;;;;27.93;41.20;101379.50;4723279;30;20201;-89
2022/07/20 02:20:39;;;;;;;5.50;4.90;;;;;;;27.94;41.24;101379.28;4718973;30;20580;-89
2022/07/20 02:23:08;;;;;;;7.40;5.20;;;;;;;27.92;41.28;101373.34;4725077;30;20172;-87
2022/07/20 02:25:36;;;;;;;9.65;5.63;;;;;;;27.91;41.07;101371.69;4735190;30;20174;-88
2022/07/20 02:28:02;;;;;;;6.90;5.25;;;;;;;27.87;41.24;101364.34;4725123;30;20634;-89
2022/07/20 02:30:27;;;;;;;8.27;5.65;;;;;;;27.88;41.23;101356.09;4721921;30;20049;-89
2022/07/20 02:32:53;;;;;;;7.07;5.22;;;;;;;27.86;41.23;101349.31;4717179;30;20048;-90
2022/07/20 02:35:18;;;;;;;7.68;5.20;;;;;;;27.93;41.06;101363.44;4703149;30;20061;-90
2022/07/20 02:37:44;;;;;;;7.55;5.45;;;;;;;27.93;41.25;101358.91;4724093;30;20055;-90
2022/07/20 02:40:10;;;;;;;7.20;5.18;;;;;;;27.93;41.26;101352.75;4708499;30;20088;-89
2022/07/20 02:42:35;;;;;;;7.25;5.38;;;;;;;27.84;41.32;101340.72;4718666;30;20049;-90
2022/07/20 02:45:01;;;;;;;5.82;5.03;;;;;;;27.87;41.09;101346.44;4717422;30;20052;-88
2022/07/20 02:47:26;;;;;;;7.25;5.03;;;;;;;27.85;41.21;101345.84;4720912;30;20066;-88
2022/07/20 02:49:52;;;;;;;5.65;4.93;;;;;;;27.90;41.57;101358.53;4723235;30;20625;-88
2022/07/20 02:52:17;;;;;;;7.03;5.60;;;;;;;27.90;41.33;101356.69;4721213;30;20056;-88
2022/07/20 02:54:43;;;;;;;7.50;5.38;;;;;;;27.82;41.30;101342.75;4722996;30;20056;-87
2022/07/20 02:57:08;;;;;;;7.05;5.30;;;;;;;27.89;41.15;101362.25;4706628;30;20041;-88
2022/07/20 02:59:34;;;;;;;6.30;5.20;;;;;;;27.87;41.20;101351.78;4725028;30;20044;-89
2022/07/20 03:01:59;;;;;;;8.02;5.13;;;;;;;27.77;41.21;101338.06;4724719;30;20040;-88
2022/07/20 03:04:25;;;;;;;6.45;5.32;;;;;;;27.88;41.13;101360.63;4724103;30;20048;-88
2022/07/20 03:06:50;;;;;;;6.80;5.32;;;;;;;27.88;41.09;101364.13;4722923;30;20084;-88
2022/07/20 03:09:16;;;;;;;6.60;5.38;;;;;;;27.80;41.31;101344.84;4719275;30;20036;-87
2022/07/20 03:11:41;;;;;;;6.53;5.15;;;;;;;27.86;41.23;101349.31;4708967;30;20053;-87
2022/07/20 03:14:07;;;;;;;7.78;5.50;;;;;;;27.88;41.13;101347.25;4734785;29;20048;-88
2022/07/20 03:16:33;;;;;;;7.32;4.95;;;;;;;27.85;41.23;101347.69;4721449;30;20151;-88
2022/07/20 03:18:58;;;;;;;6.55;5.45;;;;;;;27.84;41.17;101349.56;4721845;30;20049;-89
2022/07/20 03:21:25;;;;;;;8.52;5.30;;;;;;;27.85;41.11;101353.03;4721725;30;20052;-87
2022/07/20 03:23:51;;;;;;;6.47;5.10;;;;;;;27.77;41.15;101332.72;4718749;30;20562;-87
2022/07/20 03:26:18;;;;;;;6.55;5.00;;;;;;;27.82;40.99;101340.06;4720343;30;20032;-88
2022/07/20 03:28:44;;;;;;;7.60;5.03;;;;;;;27.85;40.87;101345.00;4721269;30;20111;-88
2022/07/20 03:31:10;;;;;;;7.75;5.15;;;;;;;27.80;41.31;101337.63;4723924;30;20044;-88
2022/07/20 03:33:36;;;;;;;6.30;5.05;;;;;;;27.75;41.18;101332.13;4721443;30;20504;-89
2022/07/20 03:36:01;;;;;;;5.85;4.95;;;;;;;27.81;41.11;101341.13;4705743;30;20068;-88
2022/07/20 03:38:27;;;;;;;6.72;5.00;;;;;;;27.83;41.26;101355.94;4722421;30;20547;-88
2022/07/20 03:40:53;;;;;;;8.23;5.90;;;;;;;27.83;41.11;101353.28;4721713;30;20049;-88
2022/07/20 03:43:18;;;;;;;6.88;5.05;;;;;;;27.82;41.26;101350.78;4723841;30;20075;-89
2022/07/20 03:45:44;;;;;;;6.70;5.50;;;;;;;27.83;41.03;101344.38;4721774;30;20036;-88
2022/07/20 03:48:09;;;;;;;8.07;5.22;;;;;;;27.82;40.88;101342.75;4732668;30;20079;-87
2022/07/20 03:50:35;;;;;;;7.43;5.03;;;;;;;27.72;41.04;101337.91;4717704;30;20055;-87
2022/07/20 03:53:01;;;;;;;7.10;5.10;;;;;;;27.78;41.22;101352.28;4709641;30;20494;-87
2022/07/20 03:55:26;;;;;;;8.45;5.47;;;;;;;27.79;41.02;101346.69;4721602;30;20059;-87
2022/07/20 03:57:52;;;;;;;8.45;5.30;;;;;;;27.76;40.74;101351.69;4720201;30;20119;-88
2022/07/20 04:00:18;;;;;;;7.47;5.13;;;;;;;27.79;40.97;101351.22;4712321;30;20060;-88
2022/07/20 04:02:44;;;;;;;5.35;4.85;;;;;;;27.80;40.90;101358.22;4721393;30;20037;-89
2022/07/20 04:05:13;;;;;;;7.80;5.40;;;;;;;27.79;40.65;101353.91;4723424;30;20098;-88
2022/07/20 04:07:38;;;;;;;7.10;5.25;;;;;;;27.77;40.94;101351.44;4718119;30;20117;-88
2022/07/20 04:10:04;;;;;;;6.55;5.22;;;;;;;27.74;40.88;101343.06;4718518;30;20044;-89
2022/07/20 04:12:33;;;;;;;6.10;5.40;;;;;;;27.74;40.76;101343.06;4718853;30;20112;-89
2022/07/20 04:14:58;;;;;;;6.60;5.00;;;;;;;27.75;40.96;101347.38;4703979;30;20045;-88
2022/07/20 04:17:27;;;;;;;8.00;5.20;;;;;;;27.80;40.91;101352.88;4718102;30;20118;-88
2022/07/20 04:19:52;;;;;;;7.22;5.22;;;;;;;27.70;40.71;101345.34;4717739;30;20036;-88
2022/07/20 04:22:18;;;;;;;6.60;5.30;;;;;;;27.75;40.74;101360.75;4692687;30;20045;-88
2022/07/20 04:24:43;;;;;;;7.38;5.13;;;;;;;27.78;40.77;101362.97;4721545;30;20053;-89
2022/07/20 04:27:09;;;;;;;6.05;5.00;;;;;;;27.78;40.72;101366.47;4716668;30;20074;-88
2022/07/20 04:29:35;;;;;;;7.78;5.10;;;;;;;27.78;40.67;101358.44;4720511;30;20040;-88
2022/07/20 04:32:01;;;;;;;7.28;5.10;;;;;;;27.72;40.63;101355.84;4717235;30;20548;-88
2022/07/20 04:34:33;;;;;;;7.63;5.43;;;;;;;27.67;40.39;101348.47;4725294;30;20779;-88
2022/07/20 04:36:59;;;;;;;6.97;5.45;;;;;;;27.64;40.86;101347.03;4725515;30;20118;-88
2022/07/20 04:39:25;;;;;;;6.75;4.72;;;;;;;27.71;40.67;101359.56;4724388;30;20048;-88
2022/07/20 04:41:53;;;;;;;8.20;5.70;;;;;;;27.74;40.70;101362.59;4725453;30;20094;-89
2022/07/20 04:44:19;;;;;;;7.00;5.32;;;;;;;27.72;40.69;101362.00;4723117;30;20139;-88
2022/07/20 04:46:45;;;;;;;6.75;5.38;;;;;;;27.66;40.53;101352.19;4718524;30;20055;-88
2022/07/20 04:49:11;;;;;;;8.90;4.82;;;;;;;27.72;40.51;101366.53;4726553;30;20053;-88
2022/07/20 04:51:37;;;;;;;6.45;5.45;;;;;;;27.68;40.72;101360.81;4723247;30;20072;-88
2022/07/20 04:54:03;;;;;;;9.43;5.30;;;;;;;27.74;40.68;101367.94;4719671;30;20051;-90
2022/07/20 04:56:29;;;;;;;7.63;5.78;;;;;;;27.74;40.65;101377.84;4723124;30;20072;-89
2022/07/20 04:58:55;;;;;;;7.45;5.28;;;;;;;27.64;40.82;101362.25;4725085;30;20678;-88
2022/07/20 05:01:23;;;;;;;5.80;4.88;;;;;;;27.73;40.64;101386.91;4723162;30;20059;-89
2022/07/20 05:03:48;;;;;;;6.80;5.13;;;;;;;27.67;40.49;101380.59;4721759;30;20053;-88
2022/07/20 05:06:14;;;;;;;8.75;5.53;;;;;;;27.74;40.45;101391.22;4708189;30;20041;-89
2022/07/20 05:08:40;;;;;;;7.47;5.20;;;;;;;27.75;40.51;101399.03;4708103;30;20231;-89
2022/07/20 05:11:05;;;;;;;9.52;5.43;;;;;;;27.67;40.71;101372.56;4719631;30;20025;-88
2022/07/20 05:13:31;;;;;;;6.40;5.28;;;;;;;27.64;40.57;101375.63;4725694;30;20060;-88
2022/07/20 05:15:57;;;;;;;5.93;4.93;;;;;;;27.72;40.71;101382.59;4719027;30;20052;-87
2022/07/20 05:18:22;;;;;;;8.10;5.07;;;;;;;27.73;40.67;101382.38;4721460;30;20708;-88
2022/07/20 05:20:48;;;;;;;8.52;5.75;;;;;;;27.72;40.61;101383.41;4724229;30;20048;-91
2022/07/20 05:23:13;;;;;;;6.82;5.22;;;;;;;27.65;40.54;101370.09;4727157;30;20060;-89
2022/07/20 05:25:40;;;;;;;6.57;5.25;;;;;;;27.63;40.69;101366.78;4726804;30;20515;-89
2022/07/20 05:28:06;;;;;;;8.00;4.97;;;;;;;27.73;40.50;101382.38;4725266;30;20566;-90
2022/07/20 05:30:32;;;;;;;6.88;4.90;;;;;;;27.72;40.50;101383.41;4740593;30;20052;-88
2022/07/20 05:32:58;;;;;;;7.13;5.18;;;;;;;27.68;40.62;101384.91;4724932;30;20052;-89
2022/07/20 05:35:23;;;;;;;6.38;5.40;;;;;;;27.63;40.75;101377.50;4740917;30;20060;-89
2022/07/20 05:37:49;;;;;;;9.48;5.68;;;;;;;27.70;40.60;101390.84;4726949;30;20060;-89
2022/07/20 05:40:14;;;;;;;6.97;5.30;;;;;;;27.73;40.88;101408.31;4729191;30;20037;-89
2022/07/20 05:42:40;;;;;;;6.22;5.40;;;;;;;27.72;40.74;101399.47;4732171;30;20136;-89
2022/07/20 05:45:06;;;;;;;7.30;5.50;;;;;;;27.64;40.81;101386.34;4725168;30;20048;-89
2022/07/20 05:47:31;;;;;;;8.40;5.50;;;;;;;27.74;40.70;101400.06;4722873;30;20753;-89
2022/07/20 05:49:57;;;;;;;6.68;5.38;;;;;;;27.73;40.70;101402.97;4712892;30;20044;-90
2022/07/20 05:52:23;;;;;;;7.20;5.28;;;;;;;27.67;40.87;101396.63;4722470;30;21056;-89
2022/07/20 05:54:48;;;;;;;6.28;4.60;;;;;;;27.71;40.82;101405.03;4726574;30;20048;-89
2022/07/20 05:57:14;;;;;;;7.28;5.60;;;;;;;27.64;40.82;101395.19;4723284;30;20041;-90
2022/07/20 05:59:40;;;;;;;7.88;5.78;;;;;;;27.60;40.79;101393.97;4724486;30;20044;-90
2022/07/20 06:02:07;;;;;;;6.72;5.57;;;;;;;27.74;40.92;101418.78;4721871;30;20045;-89
2022/07/20 06:04:32;;;;;;;7.70;5.68;;;;;;;27.73;41.30;101411.00;4726272;30;20049;-89
2022/07/20 06:06:58;;;;;;;7.72;5.53;;;;;;;27.71;41.19;101411.22;4719608;30;20118;-90
2022/07/20 06:09:23;;;;;;;8.70;5.88;;;;;;;27.71;41.44;101411.22;4720719;30;20048;-90
2022/07/20 06:11:49;;;;;;;7.10;5.93;;;;;;;27.70;41.36;101417.59;4725293;30;20425;-89
2022/07/20 06:14:15;;;;;;;6.38;5.53;;;;;;;27.69;41.10;101407.94;4724917;30;20063;-88
2022/07/20 06:16:40;;;;;;;6.15;5.55;;;;;;;27.77;41.09;101417.53;4725071;30;20059;-88
2022/07/20 06:19:06;;;;;;;6.45;5.28;;;;;;;27.76;41.07;101411.38;4729411;30;20110;-88
2022/07/20 06:21:31;;;;;;;8.32;5.70;;;;;;;27.74;41.27;101412.63;4729117;30;20052;-88
2022/07/20 06:23:57;;;;;;;6.95;5.53;;;;;;;27.72;41.23;101415.53;4712787;30;20107;-90
2022/07/20 06:26:22;;;;;;;6.53;5.88;;;;;;;27.68;41.16;101423.16;4722823;30;20398;-89
2022/07/20 06:28:48;;;;;;;6.18;5.57;;;;;;;27.73;41.19;101429.72;4723948;30;20087;-90
2022/07/20 06:31:14;;;;;;;8.18;5.68;;;;;;;27.73;41.54;101429.72;4714567;30;20036;-90
2022/07/20 06:33:39;;;;;;;8.55;5.97;;;;;;;27.79;41.88;101432.31;4723511;30;20044;-86
2022/07/20 06:36:05;;;;;;;7.47;5.82;;;;;;;27.75;41.56;101424.97;4720373;30;20040;-86
2022/07/20 06:38:30;;;;;;;7.40;5.65;;;;;;;27.79;41.34;101426.16;4706326;30;20049;-85
2022/07/20 06:40:56;;;;;;;8.52;5.93;;;;;;;27.76;41.65;101419.38;4721553;30;20059;-85
2022/07/20 06:43:23;;;;;;;6.10;5.28;;;;;;;27.79;41.49;101426.16;4718781;30;20048;-87
2022/07/20 06:45:49;;;;;;;6.85;6.07;;;;;;;27.77;41.26;101423.69;4720259;30;20060;-85
2022/07/20 06:48:15;;;;;;;8.23;5.47;;;;;;;27.77;41.54;101422.88;4721201;30;20408;-85
2022/07/20 06:50:41;;;;;;;6.35;5.07;;;;;;;27.75;41.65;101431.13;4721856;30;20037;-84
2022/07/20 06:53:07;;;;;;;6.78;5.28;;;;;;;27.79;41.47;101439.53;4723014;30;20041;-83
2022/07/20 06:55:32;;;;;;;7.95;5.70;;;;;;;27.80;40.83;101436.66;4720639;30;20049;-84
2022/07/20 06:57:58;;;;;;;7.05;5.32;;;;;;;27.82;40.55;101426.53;4718504;30;20044;-85
2022/07/20 07:00:23;;;;;;;10.10;5.85;;;;;;;27.83;40.67;101435.38;4721173;30;20041;-83
2022/07/20 07:02:49;;;;;;;8.20;6.10;;;;;;;27.79;40.71;101424.31;4715923;30;20048;-85
2022/07/20 07:05:14;;;;;;;8.27;6.03;;;;;;;27.86;40.54;101424.25;4688256;30;20052;-88
2022/07/20 07:07:40;;;;;;;7.05;5.70;;;;;;;27.88;40.62;101439.06;4721964;30;20072;-86
2022/07/20 07:10:06;;;;;;;6.22;5.45;;;;;;;27.89;40.72;101439.88;4723885;30;20052;-87
2022/07/20 07:12:32;;;;;;;7.18;5.70;;;;;;;27.93;40.33;101441.06;4722351;30;20055;-88
2022/07/20 07:14:57;;;;;;;8.20;5.97;;;;;;;27.94;40.28;101442.72;4725451;30;20083;-87
2022/07/20 07:17:23;;;;;;;9.40;6.13;;;;;;;27.95;40.03;101439.81;4710922;30;20056;-88
2022/07/20 07:19:48;;;;;;;7.00;5.75;;;;;;;27.94;40.17;101426.66;4725431;30;20041;-87
2022/07/20 07:22:14;;;;;;;9.25;6.97;;;;;;;27.99;40.17;101443.69;4722678;30;20044;-88
2022/07/20 07:24:40;;;;;;;7.68;5.80;;;;;;;27.99;39.86;101437.50;4718142;30;20048;-88
2022/07/20 07:27:06;;;;;;;8.75;6.43;;;;;;;27.99;39.84;101441.00;4708532;30;20793;-88
2022/07/20 07:29:32;;;;;;;9.48;6.38;;;;;;;27.99;40.22;101440.19;4702774;30;20044;-88
2022/07/20 07:32:00;;;;;;;10.07;6.68;;;;;;;28.02;40.25;101445.13;4726179;30;20043;-87
2022/07/20 07:34:26;;;;;;;9.65;5.72;;;;;;;28.04;40.09;101445.72;4724597;30;20481;-87
2022/07/20 07:36:52;;;;;;;7.85;6.68;;;;;;;28.02;40.17;101444.31;4720445;30;20044;-85
2022/07/20 07:39:18;;;;;;;8.30;6.78;;;;;;;28.07;40.26;101449.81;4723875;30;20059;-87
2022/07/20 07:41:44;;;;;;;9.23;6.45;;;;;;;28.00;40.12;101434.63;4722324;30;20036;-88
2022/07/20 07:44:09;;;;;;;10.20;6.40;;;;;;;28.07;39.97;101439.94;4723506;30;20063;-87
2022/07/20 07:46:35;;;;;;;8.85;6.85;;;;;;;28.05;39.92;101436.66;4724891;30;20118;-84
2022/07/20 07:49:01;;;;;;;8.45;6.32;;;;;;;28.11;40.27;101449.16;4722599;30;20450;-85
2022/07/20 07:51:27;;;;;;;9.10;6.68;;;;;;;28.06;40.25;101445.50;4724990;30;20068;-85
2022/07/20 07:53:52;;;;;;;7.60;6.80;;;;;;;28.12;40.13;101453.47;4714001;30;20067;-87
2022/07/20 07:56:18;;;;;;;9.25;6.93;;;;;;;28.15;40.07;101469.09;4723648;30;20045;-88
2022/07/20 07:58:43;;;;;;;8.02;6.70;;;;;;;28.17;40.16;101475.03;4727030;30;20049;-88
2022/07/20 08:01:09;;;;;;;12.98;7.13;;;;;;;28.18;40.10;101478.53;4719402;30;20049;-85
2022/07/20 08:03:34;;;;;;;9.40;7.28;;;;;;;28.17;40.04;101480.38;4717651;30;20055;-88
2022/07/20 08:06:00;;;;;;;9.43;6.88;;;;;;;28.18;39.98;101465.13;4720223;30;20064;-85
2022/07/20 08:08:26;;;;;;;10.27;7.35;;;;;;;28.12;40.04;101474.06;4719139;30;20041;-88
2022/07/20 08:10:52;;;;;;;9.65;6.80;;;;;;;28.22;40.48;101487.78;4724892;30;20064;-86
2022/07/20 08:13:18;;;;;;;9.35;7.13;;;;;;;28.20;40.43;101492.53;4712168;30;20416;-88
2022/07/20 08:15:43;;;;;;;11.50;6.90;;;;;;;28.24;40.48;101499.91;4728714;30;20529;-86
2022/07/20 08:18:09;;;;;;;8.20;7.00;;;;;;;28.29;40.40;101499.28;4724732;30;20068;-90
2022/07/20 08:20:34;;;;;;;10.13;7.18;;;;;;;28.28;40.46;101498.47;4722444;30;20721;-89
2022/07/20 08:23:00;;;;;;;10.77;7.55;;;;;;;28.27;40.69;101506.72;4720625;30;20045;-88
2022/07/20 08:25:26;;;;;;;8.90;7.35;;;;;;;28.17;40.68;101479.56;4722840;30;20052;-89
2022/07/20 08:27:51;;;;;;;9.70;6.72;;;;;;;28.23;40.88;101489.44;4720241;30;20082;-89
2022/07/20 08:30:17;;;;;;;8.30;6.82;;;;;;;28.32;40.91;101509.53;4720423;30;20040;-89
2022/07/20 08:32:43;;;;;;;7.90;6.75;;;;;;;28.35;40.90;101521.69;4726235;30;20044;-90
2022/07/20 08:35:10;;;;;;;9.82;7.20;;;;;;;28.33;41.07;101511.19;4721062;30;20060;-90
2022/07/20 08:37:37;;;;;;;8.18;7.32;;;;;;;28.37;41.00;101527.63;4723423;30;20044;-90
2022/07/20 08:40:04;;;;;;;9.65;7.22;;;;;;;28.28;40.96;101530.59;4728599;30;20110;-89
2022/07/20 08:42:29;;;;;;;8.70;6.75;;;;;;;28.38;41.31;101546.19;4725977;30;20056;-89
2022/07/20 08:44:55;;;;;;;8.30;7.40;;;;;;;28.34;41.03;101536.94;4725203;30;20083;-90
2022/07/20 08:47:28;;;;;;;8.10;6.68;;;;;;;28.37;41.28;101539.19;4725859;30;20067;-88
2022/07/20 08:49:54;;;;;;;9.02;7.50;;;;;;;28.42;41.11;101550.06;4725274;30;20048;-90
2022/07/20 08:52:19;;;;;;;8.45;7.03;;;;;;;28.43;41.33;101553.56;4722723;30;20071;-89
2022/07/20 08:54:45;;;;;;;8.90;7.47;;;;;;;28.43;41.34;101559.72;4724537;30;20405;-88
2022/07/20 08:57:13;;;;;;;9.38;7.35;;;;;;;28.43;41.40;101562.41;4726421;30;20451;-90
2022/07/20 08:59:39;;;;;;;10.50;7.13;;;;;;;28.40;41.70;101559.34;4724355;30;20056;-88
2022/07/20 09:02:07;;;;;;;9.20;7.40;;;;;;;28.42;41.34;101560.78;4729029;30;20061;-89
2022/07/20 09:04:58;;;;;;;10.57;7.40;;;;;;;28.43;41.47;101573.13;4724556;30;20053;-88
2022/07/20 09:07:43;;;;;;;9.82;7.50;;;;;;;28.45;41.58;101576.41;4728982;30;20044;-89
2022/07/20 09:10:11;;;;;;;9.57;7.30;;;;;;;28.46;41.54;101579.91;4723852;30;20485;-89
2022/07/20 09:13:04;;;;;;;10.27;7.10;;;;;;;28.46;41.61;101575.38;4726704;30;20058;-90
2022/07/20 09:15:40;;;;;;;13.45;7.88;;;;;;;28.46;41.66;101579.91;4723906;30;20404;-89
2022/07/20 09:18:10;;;;;;;15.70;7.72;;;;;;;28.49;41.77;101590.19;4728248;30;20099;-88
2022/07/20 09:20:39;;;;;;;11.60;8.07;;;;;;;28.49;41.65;101614.28;4729283;30;20083;-89
2022/07/20 09:23:14;;;;;;;11.05;8.23;;;;;;;28.45;41.40;101605.06;4731047;30;20055;-89
2022/07/20 09:25:53;;;;;;;12.10;8.02;;;;;;;28.51;41.83;101609.53;4727928;30;20056;-89
2022/07/20 09:28:18;;;;;;;13.80;8.43;;;;;;;28.49;41.75;101617.78;4725312;30;20051;-89
2022/07/20 09:30:53;;;;;;;14.07;8.43;;;;;;;28.48;41.84;101621.50;4724371;30;20052;-89
2022/07/20 09:33:29;;;;;;;12.60;8.38;;;;;;;28.51;41.91;101621.06;4727273;30;20071;-89
2022/07/20 09:35:57;;;;;;;11.02;8.57;;;;;;;28.51;41.78;101626.41;4729612;30;20044;-89
2022/07/20 09:38:35;;;;;;;11.05;8.35;;;;;;;28.52;41.84;101627.25;4727745;30;20096;-89
2022/07/20 09:41:03;;;;;;;10.65;8.20;;;;;;;28.52;41.91;101646.00;4724845;30;20084;-89
2022/07/20 09:43:32;;;;;;;11.93;8.85;;;;;;;28.54;42.00;101650.09;4743155;30;20073;-88
2022/07/20 09:46:28;;;;;;;13.60;8.57;;;;;;;28.52;41.89;101649.50;4726381;30;20045;-89
2022/07/20 09:48:56;;;;;;;13.90;8.45;;;;;;;28.53;41.97;101656.50;4726186;30;20069;-85
2022/07/20 09:51:33;;;;;;;14.43;9.43;;;;;;;28.51;42.25;101652.41;4728523;30;20610;-89
2022/07/20 09:54:05;;;;;;;14.93;9.93;;;;;;;28.49;41.85;101651.78;4728200;30;20048;-89
2022/07/20 09:56:32;;;;;;;12.50;8.57;;;;;;;28.54;42.11;101670.72;4722305;30;20884;-90
2022/07/20 09:59:00;;;;;;;12.25;9.65;;;;;;;28.56;42.16;101652.59;4728109;30;20171;-90
2022/07/20 10:01:31;;;;;;;15.40;9.63;;;;;;;28.56;42.04;101668.66;4726899;30;20094;-90
2022/07/20 10:04:01;;;;;;;14.30;9.93;;;;;;;28.53;41.98;101655.69;4722863;30;20303;-89
2022/07/20 10:06:28;;;;;;;;;;;;;;;28.57;42.07;101662.25;4726388;30;20036;-90
2022/07/20 10:08:54;;;;;;;13.65;9.95;;;;;;;28.55;42.25;101656.31;4729352;30;19926;-89
2022/07/20 10:11:22;;;;;;;15.65;10.15;;;;;;;28.51;42.08;101653.22;4725030;30;20111;-89
2022/07/20 10:13:48;;;;;;;15.45;10.50;;;;;;;28.56;42.16;101655.25;4725309;30;20102;-90
2022/07/20 10:16:25;;;;;;;16.63;11.05;;;;;;;28.52;42.30;101652.19;4722745;30;20052;-89
2022/07/20 10:18:52;;;;;;;13.45;9.98;;;;;;;28.51;42.20;101650.53;4720155;30;20119;-90
2022/07/20 10:21:46;;;;;;;17.77;10.88;;;;;;;28.58;42.17;101656.69;4724678;30;20064;-90
2022/07/20 10:24:25;;;;;;;18.83;11.35;;;;;;;28.59;42.25;101652.97;4723908;30;20176;-90
2022/07/20 10:26:55;;;;;;;14.85;10.57;;;;;;;28.58;42.06;101654.00;4727017;30;20044;-89
2022/07/20 10:29:31;;;;;;;16.63;12.38;;;;;;;28.59;42.33;101657.50;4727433;30;20048;-90
2022/07/20 10:32:16;;;;;;;17.75;11.18;;;;;;;28.58;42.55;101650.50;4725907;30;20056;-90
2022/07/20 10:34:47;;;;;;;15.38;11.70;;;;;;;28.57;42.42;101652.38;4725287;30;20421;-90
2022/07/20 10:37:36;;;;;;;14.88;10.88;;;;;;;28.60;42.21;101661.81;4724970;30;20513;-90
2022/07/20 10:40:05;;;;;;;14.32;11.10;;;;;;;28.59;42.41;101665.53;4724427;30;20055;-90
2022/07/20 10:42:38;;;;;;;17.77;11.80;;;;;;;28.61;42.28;101662.63;4722733;30;20504;-89
2022/07/20 10:45:16;;;;;;;18.73;12.98;;;;;;;28.61;42.36;101662.63;4722891;30;20506;-89
2022/07/20 10:47:50;;;;;;;17.25;11.80;;;;;;;28.61;42.29;101663.47;4723898;30;20048;-89
2022/07/20 10:50:21;;;;;;;16.38;11.50;;;;;;;28.61;42.52;101662.63;4724018;30;20177;-90
2022/07/20 10:52:49;;;;;;;18.45;11.65;;;;;;;28.57;42.42;101662.25;4717528;30;20044;-89
2022/07/20 10:55:44;;;;;;;16.20;12.00;;;;;;;28.62;42.34;101665.09;4721035;30;20736;-89
2022/07/20 10:58:18;;;;;;;16.27;12.40;;;;;;;28.62;42.46;101659.75;4717132;30;20060;-88
2022/07/20 11:01:00;;;;;;;19.77;13.18;;;;;;;28.56;42.50;101648.03;4716280;30;20532;-89
2022/07/20 11:03:37;;;;;;;19.88;13.23;;;;;;;28.61;42.39;101655.41;4725320;30;20421;-88
2022/07/20 11:06:07;;;;;;;16.95;12.60;;;;;;;28.62;42.57;101664.28;4726746;30;20695;-88
2022/07/20 11:08:34;;;;;;;18.77;12.35;;;;;;;28.63;42.46;101661.38;4723301;30;20060;-89
2022/07/20 11:11:01;;;;;;;21.80;14.13;;;;;;;28.64;42.39;101656.84;4723216;30;20500;-87
2022/07/20 11:13:27;;;;;;;21.50;13.90;;;;;;;28.64;42.55;101656.84;4719726;30;20770;-88
2022/07/20 11:15:58;;;;;;;17.38;13.68;;;;;;;28.59;42.36;101644.09;4724464;30;20106;-89
2022/07/20 11:18:27;;;;;;;18.35;13.55;;;;;;;28.60;42.38;101651.09;4720935;30;20055;-88
2022/07/20 11:20:54;;;;;;;17.52;13.57;;;;;;;28.63;42.34;101671.28;4720842;30;20055;-88
2022/07/20 11:23:23;;;;;;;17.55;13.43;;;;;;;28.66;42.54;101681.56;4721308;30;20492;-89
2022/07/20 11:25:56;;;;;;;21.17;14.77;;;;;;;28.64;42.73;101684.47;4722441;30;20052;-89
2022/07/20 11:28:27;;;;;;;16.73;13.00;;;;;;;28.62;42.64;101672.31;4722720;30;20101;-89